Forside
METAR-TAF:

METAR-TAF

Lufthavne :

Edgar County Airport

Paris, Illinois, USA

Breddekreds: 39-42-01N, længdekreds: 087-40-11W, højde: 199 m

Aktuelle vejr

Denne rapport blev lavet for 26 minutter siden, kl. 16:35 UTC
Vind 10 kt fra sydsydvest
Temperatur 9°C
Fugtighed 57%
Tryk 1019 hPa
Sigt: 16.1 km
skyfri

METAR: KPRG 231635Z AUTO 21010KT 10SM CLR 09/01 A3010 RMK AO2 T00860011

Tid: 11:01 (17:01 UTC)


TAF: fraværende

Vejrobservationer og prognoser fra mere end 4000 lufthavne (METAR og TAF).

De gule og røde prikker repræsenterer de meteorologiske stationer.

Flyt musen over at se navnet på stationen.

Så klik over at se vejr observationer og prognoser.

At skifte det kort: Klik på de grønne knapper med et sort kors for at zoome ind; på den grønne knap med en bindestreg for at zoome ud; eller på de grønne pile for tilstødende kort.


METAR-TAF: